Time;durP1;ratioP1;P1;durP2;ratioP2;P2;SDS_P1;SDS_P2;PMS_P1;PMS_P2;Temp;Humidity;BMP_temperature;BMP_pressure;BME280_temperature;BME280_humidity;BME280_pressure;Samples;Min_cycle;Max_cycle;Signal;HPM_P1;HPM_P2
2022/12/16 00:02:16;;;;;;;23.50;18.27;;;3.60;43.50;;;;;;10329627;28;20226;-74
2022/12/16 00:07:21;;;;;;;23.40;18.20;;;3.60;43.50;;;;;;10318364;28;20223;-68
2022/12/16 00:12:24;;;;;;;23.37;18.30;;;3.70;43.80;;;;;;10309512;28;20694;-70
2022/12/16 00:17:27;;;;;;;23.30;17.43;;;3.60;43.60;;;;;;10310078;28;20235;-69
2022/12/16 00:22:32;;;;;;;23.73;18.57;;;3.60;43.60;;;;;;10313125;28;20918;-69
2022/12/16 00:27:35;;;;;;;24.07;19.40;;;3.60;43.70;;;;;;10307702;28;20235;-70
2022/12/16 00:32:38;;;;;;;24.23;18.40;;;3.60;43.70;;;;;;10314679;28;20724;-69
2022/12/16 00:37:43;;;;;;;24.90;19.10;;;3.50;43.70;;;;;;10304089;28;20220;-70
2022/12/16 00:42:46;;;;;;;24.83;20.07;;;3.50;43.80;;;;;;10310269;28;20585;-70
2022/12/16 00:47:50;;;;;;;25.40;18.67;;;3.40;43.70;;;;;;10307005;28;20251;-69
2022/12/16 00:52:55;;;;;;;24.33;19.17;;;3.40;43.80;;;;;;10308404;28;20654;-68
2022/12/16 00:57:58;;;;;;;26.77;20.83;;;3.40;43.80;;;;;;10309261;28;20699;-68
2022/12/16 01:03:02;;;;;;;25.40;20.37;;;3.40;43.80;;;;;;10301530;28;20571;-70
2022/12/16 01:08:07;;;;;;;25.90;21.07;;;3.30;43.60;;;;;;10307462;28;20226;-68
2022/12/16 01:13:10;;;;;;;27.10;21.53;;;3.30;43.80;;;;;;10309760;28;20231;-68
2022/12/16 01:18:13;;;;;;;26.93;20.93;;;3.30;43.70;;;;;;10302431;28;20227;-68
2022/12/16 01:23:17;;;;;;;27.23;21.27;;;3.30;43.80;;;;;;10305810;28;20602;-68
2022/12/16 01:28:21;;;;;;;26.20;19.90;;;3.30;44.00;;;;;;10306044;28;20238;-68
2022/12/16 01:33:24;;;;;;;25.83;20.17;;;3.20;43.80;;;;;;10307540;28;20238;-68
2022/12/16 01:38:29;;;;;;;27.23;21.30;;;3.20;43.90;;;;;;10300215;28;20246;-69
2022/12/16 01:43:35;;;;;;;30.23;22.53;;;3.20;44.00;;;;;;10306934;28;20711;-69
2022/12/16 01:48:44;;;;;;;29.13;21.87;;;3.20;43.90;;;;;;10302814;28;20230;-69
2022/12/16 01:53:52;;;;;;;27.53;21.30;;;3.30;44.00;;;;;;10310036;28;20790;-67
2022/12/16 01:58:58;;;;;;;29.03;22.10;;;3.20;43.90;;;;;;10307711;28;20231;-67
2022/12/16 02:04:03;;;;;;;30.67;23.53;;;3.20;43.80;;;;;;10304849;28;20241;-67
2022/12/16 02:09:11;;;;;;;27.73;21.60;;;3.20;43.90;;;;;;10304436;28;20230;-67
2022/12/16 02:14:34;;;;;;;26.93;21.90;;;3.20;43.90;;;;;;10307747;28;21016;-67
2022/12/16 02:20:18;;;;;;;29.43;22.10;;;3.20;44.20;;;;;;10306625;28;20658;-67
2022/12/16 02:25:54;;;;;;;29.17;21.87;;;3.20;44.30;;;;;;10303775;28;20276;-69
2022/12/16 02:31:08;;;;;;;26.67;21.20;;;3.30;44.30;;;;;;10301644;28;20226;-68
2022/12/16 02:36:18;;;;;;;28.23;22.27;;;3.30;44.10;;;;;;10305497;28;20333;-67
2022/12/16 02:41:27;;;;;;;29.33;23.03;;;3.30;43.80;;;;;;10298863;28;20215;-67
2022/12/16 02:46:33;;;;;;;27.63;22.57;;;3.30;43.80;;;;;;10302674;28;20242;-67
2022/12/16 02:51:38;;;;;;;27.80;22.17;;;3.30;43.80;;;;;;10301494;28;20227;-68
2022/12/16 02:56:53;;;;;;;29.10;22.37;;;3.30;43.70;;;;;;10304328;28;20223;-67
2022/12/16 03:02:05;;;;;;;32.67;23.43;;;3.30;43.90;;;;;;10306418;28;20799;-67
2022/12/16 03:07:13;;;;;;;27.50;20.40;;;3.30;43.90;;;;;;10303567;28;20235;-67
2022/12/16 03:12:20;;;;;;;28.63;22.27;;;3.30;43.80;;;;;;10309449;28;20711;-68
2022/12/16 03:17:27;;;;;;;28.27;21.57;;;3.40;43.90;;;;;;10310838;28;20231;-68
2022/12/16 03:22:34;;;;;;;29.77;21.90;;;3.30;43.90;;;;;;10310529;28;20242;-69
2022/12/16 03:27:51;;;;;;;26.87;22.10;;;3.30;43.90;;;;;;10309584;28;20741;-68
2022/12/16 03:33:01;;;;;;;30.07;23.07;;;3.30;44.00;;;;;;10313578;28;20235;-67
2022/12/16 03:38:08;;;;;;;30.53;23.67;;;3.30;44.00;;;;;;10309996;28;20752;-68
2022/12/16 03:43:14;;;;;;;31.53;23.83;;;3.30;43.80;;;;;;10312395;28;20234;-67
2022/12/16 03:48:23;;;;;;;29.60;23.13;;;3.30;43.90;;;;;;10308639;28;20246;-67
2022/12/16 03:53:27;;;;;;;28.73;23.17;;;3.30;44.10;;;;;;10310867;28;20231;-69
2022/12/16 03:58:30;;;;;;;29.50;22.33;;;3.30;43.90;;;;;;10307522;28;20232;-68
2022/12/16 04:03:35;;;;;;;28.63;21.77;;;3.30;43.90;;;;;;10313175;28;20280;-69
2022/12/16 04:08:39;;;;;;;26.90;21.60;;;3.30;44.00;;;;;;10310170;28;20231;-69
2022/12/16 04:24:34;;;;;;;27.63;21.40;;;3.40;43.80;;;;;;10299287;28;20699;-70
2022/12/16 04:30:17;;;;;;;28.77;22.33;;;3.40;43.80;;;;;;10311345;28;20219;-74
